Time;durP1;ratioP1;P1;durP2;ratioP2;P2;SDS_P1;SDS_P2;PMS_P1;PMS_P2;Temp;Humidity;BMP_temperature;BMP_pressure;BME280_temperature;BME280_humidity;BME280_pressure;Samples;Min_cycle;Max_cycle;Signal;HPM_P1;HPM_P2
2022/12/07 00:01:29;;;;;;;12.18;1.63;;;;;;;;;;5010161;28;20115;-91
2022/12/07 00:04:13;;;;;;;8.73;1.27;;;;;;;;;;5006415;28;20042;-91
2022/12/07 00:06:42;;;;;;;15.18;1.70;;;;;;;;;;5012170;28;20034;-91
2022/12/07 00:09:14;;;;;;;14.95;1.60;;;;;;;;;;5001968;28;20026;-91
2022/12/07 00:15:15;;;;;;;14.68;1.90;;;;;;;;;;4970102;28;20086;-92
2022/12/07 00:17:50;;;;;;;10.45;1.45;;;;;;;;;;4954778;28;20117;-92
2022/12/07 00:20:19;;;;;;;13.80;1.27;;;;;;;;;;4943526;28;20070;-91
2022/12/07 00:22:45;;;;;;;7.97;1.05;;;;;;;;;;4943113;28;20077;-92
2022/12/07 00:25:11;;;;;;;9.50;1.52;;;;;;;;;;4951976;28;20034;-91
2022/12/07 00:27:37;;;;;;;19.05;1.60;;;;;;;;;;4948106;28;20050;-91
2022/12/07 00:30:03;;;;;;;15.60;1.60;;;;;;;;;;4956164;28;20482;-91
2022/12/07 00:32:29;;;;;;;10.10;1.80;;;;;;;;;;4955977;28;20147;-92
2022/12/07 00:34:56;;;;;;;13.90;1.75;;;;;;;;;;4951365;28;20027;-91
2022/12/07 00:37:22;;;;;;;4.03;0.63;;;;;;;;;;4987267;28;20518;-91
2022/12/07 00:39:49;;;;;;;9.23;1.27;;;;;;;;;;4960309;28;20746;-91
2022/12/07 00:42:15;;;;;;;14.55;1.33;;;;;;;;;;4974653;28;20046;-91
2022/12/07 00:44:41;;;;;;;5.97;1.52;;;;;;;;;;4972268;28;20084;-92
2022/12/07 00:47:07;;;;;;;9.70;1.98;;;;;;;;;;4988536;28;20038;-91
2022/12/07 00:49:33;;;;;;;7.32;1.27;;;;;;;;;;4974696;28;20026;-91
2022/12/07 00:51:59;;;;;;;16.33;1.60;;;;;;;;;;4969976;28;20031;-91
2022/12/07 00:54:25;;;;;;;14.82;1.60;;;;;;;;;;4957323;28;20191;-91
2022/12/07 00:56:51;;;;;;;10.30;1.50;;;;;;;;;;4971070;28;20041;-90
2022/12/07 00:59:17;;;;;;;12.73;1.23;;;;;;;;;;4969484;28;20031;-91
2022/12/07 01:01:43;;;;;;;11.95;1.30;;;;;;;;;;4974883;28;21373;-91
2022/12/07 01:04:10;;;;;;;15.80;1.02;;;;;;;;;;4957139;28;20049;-91
2022/12/07 01:06:36;;;;;;;19.30;1.27;;;;;;;;;;4960501;28;20117;-91
2022/12/07 01:09:03;;;;;;;5.13;0.90;;;;;;;;;;4959822;28;21719;-90
2022/12/07 01:11:30;;;;;;;6.47;0.70;;;;;;;;;;4987924;28;20030;-91
2022/12/07 01:13:57;;;;;;;6.20;0.68;;;;;;;;;;4956091;28;21082;-91
2022/12/07 01:16:24;;;;;;;6.05;1.33;;;;;;;;;;4975820;28;20124;-91
2022/12/07 01:18:51;;;;;;;9.07;1.02;;;;;;;;;;4983368;28;20045;-91
2022/12/07 01:21:20;;;;;;;9.32;1.20;;;;;;;;;;4974324;28;20057;-91
2022/12/07 01:23:46;;;;;;;8.25;0.70;;;;;;;;;;4966329;28;20034;-91
2022/12/07 01:26:14;;;;;;;11.30;1.00;;;;;;;;;;4977984;28;20396;-91
2022/12/07 01:28:40;;;;;;;10.65;1.60;;;;;;;;;;4976016;28;20026;-91
2022/12/07 01:31:17;;;;;;;8.88;1.23;;;;;;;;;;4977242;28;20031;-91
2022/12/07 01:33:44;;;;;;;11.63;1.25;;;;;;;;;;4980890;28;20027;-91
2022/12/07 01:36:17;;;;;;;6.35;1.42;;;;;;;;;;4972180;28;20030;-90
2022/12/07 01:38:44;;;;;;;6.20;0.65;;;;;;;;;;4971121;28;20026;-91
2022/12/07 01:41:11;;;;;;;8.52;1.58;;;;;;;;;;4972081;28;20044;-91
2022/12/07 01:43:37;;;;;;;6.78;1.10;;;;;;;;;;4974634;28;20034;-90
2022/12/07 01:46:04;;;;;;;10.43;1.90;;;;;;;;;;4949113;28;20069;-90
2022/12/07 01:48:35;;;;;;;14.45;1.75;;;;;;;;;;4977720;28;20030;-90
2022/12/07 01:51:06;;;;;;;5.95;0.73;;;;;;;;;;4970330;28;20408;-91
2022/12/07 01:53:32;;;;;;;3.13;0.90;;;;;;;;;;4977285;28;20231;-90
2022/12/07 01:55:59;;;;;;;10.82;1.15;;;;;;;;;;4984123;28;20118;-90
2022/12/07 01:58:26;;;;;;;13.30;1.05;;;;;;;;;;4974657;28;20030;-90
2022/12/07 02:00:52;;;;;;;8.70;0.75;;;;;;;;;;4961840;28;20097;-91
2022/12/07 02:03:18;;;;;;;11.57;1.00;;;;;;;;;;4975329;28;20022;-91
2022/12/07 02:05:48;;;;;;;13.25;1.98;;;;;;;;;;4972154;28;20042;-91
2022/12/07 02:08:14;;;;;;;7.05;1.02;;;;;;;;;;4962633;28;20583;-91
2022/12/07 02:10:41;;;;;;;7.45;1.20;;;;;;;;;;4960537;28;20121;-91
2022/12/07 02:13:12;;;;;;;8.18;1.10;;;;;;;;;;4969850;28;20683;-90
2022/12/07 02:15:39;;;;;;;8.02;1.35;;;;;;;;;;4985764;28;20026;-90
2022/12/07 02:18:14;;;;;;;7.30;0.90;;;;;;;;;;4980745;28;20034;-90
2022/12/07 02:20:50;;;;;;;10.57;1.30;;;;;;;;;;5009461;28;20076;-91
2022/12/07 02:23:34;;;;;;;5.97;0.95;;;;;;;;;;4971900;28;20030;-90
2022/12/07 02:26:14;;;;;;;10.45;1.13;;;;;;;;;;5003995;28;20034;-91
2022/12/07 02:29:08;;;;;;;6.13;0.80;;;;;;;;;;5006069;28;20030;-92
2022/12/07 02:31:35;;;;;;;12.65;1.20;;;;;;;;;;4998026;28;20036;-92
2022/12/07 02:34:15;;;;;;;15.32;1.17;;;;;;;;;;4984757;28;20038;-91
2022/12/07 02:36:44;;;;;;;6.70;0.73;;;;;;;;;;4989211;28;20034;-91
2022/12/07 02:39:34;;;;;;;12.25;0.93;;;;;;;;;;4991645;28;20038;-92
2022/12/07 02:42:03;;;;;;;7.47;1.25;;;;;;;;;;4999543;28;20037;-92
2022/12/07 02:44:31;;;;;;;12.82;0.95;;;;;;;;;;4975601;28;20100;-91
2022/12/07 02:47:06;;;;;;;4.60;1.40;;;;;;;;;;5007627;28;20134;-92
2022/12/07 02:49:33;;;;;;;7.38;1.02;;;;;;;;;;4988039;28;20027;-92
2022/12/07 02:51:59;;;;;;;5.10;1.23;;;;;;;;;;4994672;28;20031;-91
2022/12/07 02:54:25;;;;;;;17.67;1.58;;;;;;;;;;4982117;28;20030;-91
2022/12/07 02:56:54;;;;;;;11.38;1.40;;;;;;;;;;4991627;28;20034;-91
2022/12/07 02:59:36;;;;;;;16.67;1.65;;;;;;;;;;5006467;28;20100;-91
2022/12/07 03:02:21;;;;;;;1.52;0.63;;;;;;;;;;4991800;28;20697;-91
2022/12/07 03:04:47;;;;;;;11.35;1.20;;;;;;;;;;4991812;28;20516;-91
2022/12/07 03:07:21;;;;;;;11.73;1.02;;;;;;;;;;4988491;28;20038;-92
2022/12/07 03:09:56;;;;;;;5.93;0.93;;;;;;;;;;4991643;28;20029;-92
2022/12/07 03:12:38;;;;;;;2.38;0.70;;;;;;;;;;5005875;28;20039;-92
2022/12/07 03:15:29;;;;;;;13.82;1.33;;;;;;;;;;4987534;28;20027;-92
2022/12/07 03:17:56;;;;;;;13.02;1.23;;;;;;;;;;4969312;28;20065;-91
2022/12/07 03:20:23;;;;;;;5.93;1.00;;;;;;;;;;4957907;28;20060;-91
2022/12/07 03:22:50;;;;;;;4.88;0.98;;;;;;;;;;4968950;28;20125;-91
2022/12/07 03:25:17;;;;;;;12.20;1.30;;;;;;;;;;4973453;28;20045;-90
2022/12/07 03:27:46;;;;;;;9.43;1.05;;;;;;;;;;4973246;28;20042;-91
2022/12/07 03:30:18;;;;;;;4.22;0.95;;;;;;;;;;4973345;28;20398;-91
2022/12/07 03:33:02;;;;;;;19.38;2.08;;;;;;;;;;4967281;28;20027;-92
2022/12/07 03:35:32;;;;;;;8.15;0.93;;;;;;;;;;4986189;28;21300;-91
2022/12/07 03:38:00;;;;;;;11.25;1.52;;;;;;;;;;4988228;28;20034;-91
2022/12/07 03:40:26;;;;;;;20.80;1.13;;;;;;;;;;4975539;28;20117;-91
2022/12/07 03:42:53;;;;;;;13.82;1.17;;;;;;;;;;4973986;28;20102;-92
2022/12/07 03:45:20;;;;;;;4.00;1.33;;;;;;;;;;4986747;28;20050;-91
2022/12/07 03:47:55;;;;;;;14.88;1.40;;;;;;;;;;4992072;28;20507;-89
2022/12/07 03:50:30;;;;;;;16.75;1.67;;;;;;;;;;4972723;28;20490;-91
2022/12/07 03:52:59;;;;;;;14.47;1.93;;;;;;;;;;4990092;28;20057;-91
2022/12/07 03:55:27;;;;;;;12.00;1.30;;;;;;;;;;4972795;28;20042;-92
2022/12/07 03:57:56;;;;;;;7.25;2.40;;;;;;;;;;4975248;28;20552;-91
2022/12/07 04:00:22;;;;;;;7.97;1.17;;;;;;;;;;4970353;28;20041;-91
2022/12/07 04:02:51;;;;;;;11.18;0.68;;;;;;;;;;4987936;28;20109;-90
2022/12/07 04:05:17;;;;;;;1.98;0.73;;;;;;;;;;4973978;28;20394;-91
2022/12/07 04:07:43;;;;;;;9.07;1.00;;;;;;;;;;4973886;28;20029;-91
2022/12/07 04:10:10;;;;;;;8.90;0.60;;;;;;;;;;4980030;28;20549;-90
2022/12/07 04:12:36;;;;;;;4.00;1.10;;;;;;;;;;4974079;28;20035;-91
2022/12/07 04:15:02;;;;;;;11.23;1.02;;;;;;;;;;5009933;28;20795;-92
2022/12/07 04:17:29;;;;;;;5.90;0.73;;;;;;;;;;4994468;28;20040;-91
2022/12/07 04:19:56;;;;;;;5.85;0.90;;;;;;;;;;4991686;28;20030;-92
2022/12/07 04:22:22;;;;;;;8.63;1.17;;;;;;;;;;5007063;28;20069;-92
2022/12/07 04:24:48;;;;;;;8.50;1.05;;;;;;;;;;5010371;28;20038;-93
2022/12/07 04:27:14;;;;;;;8.00;0.85;;;;;;;;;;5008340;28;20540;-91
2022/12/07 04:29:46;;;;;;;13.98;1.48;;;;;;;;;;5025787;28;20092;-92
2022/12/07 04:32:15;;;;;;;4.60;0.80;;;;;;;;;;5006251;28;20022;-92
2022/12/07 04:34:41;;;;;;;4.90;1.10;;;;;;;;;;5009473;28;20038;-91
2022/12/07 04:37:07;;;;;;;2.63;0.77;;;;;;;;;;5001936;28;20046;-92
2022/12/07 04:39:33;;;;;;;6.72;0.82;;;;;;;;;;5011463;28;20045;-91
2022/12/07 04:42:00;;;;;;;16.45;1.00;;;;;;;;;;5000262;28;20030;-91
2022/12/07 04:44:28;;;;;;;11.75;0.85;;;;;;;;;;4994631;28;20038;-92
2022/12/07 04:46:56;;;;;;;5.18;1.08;;;;;;;;;;5021189;28;20026;-91
2022/12/07 04:49:23;;;;;;;10.52;1.00;;;;;;;;;;5005285;28;20030;-91
2022/12/07 04:51:49;;;;;;;4.00;0.95;;;;;;;;;;4999733;28;20505;-91
2022/12/07 04:54:16;;;;;;;5.22;1.05;;;;;;;;;;5006328;28;20093;-91
2022/12/07 04:56:42;;;;;;;4.68;1.00;;;;;;;;;;5004242;28;20160;-91
2022/12/07 04:59:08;;;;;;;8.48;1.30;;;;;;;;;;5005586;28;20033;-91
2022/12/07 05:01:35;;;;;;;3.50;0.82;;;;;;;;;;5006611;28;20038;-91
2022/12/07 05:04:01;;;;;;;7.03;0.80;;;;;;;;;;5003355;28;20036;-92
2022/12/07 05:06:27;;;;;;;9.25;1.20;;;;;;;;;;4989871;28;21004;-91
2022/12/07 05:08:53;;;;;;;6.22;1.10;;;;;;;;;;5005699;28;20053;-91
2022/12/07 05:14:05;;;;;;;11.05;1.83;;;;;;;;;;5019372;28;20205;-91
2022/12/07 05:16:31;;;;;;;9.07;1.20;;;;;;;;;;5007519;28;20057;-92
2022/12/07 05:18:58;;;;;;;14.05;1.83;;;;;;;;;;5001142;28;20041;-91
2022/12/07 05:21:24;;;;;;;12.75;1.35;;;;;;;;;;4995426;28;20037;-91
2022/12/07 05:23:53;;;;;;;13.38;1.35;;;;;;;;;;5007492;28;20473;-92
2022/12/07 05:26:19;;;;;;;9.05;1.23;;;;;;;;;;4998492;28;20040;-91
2022/12/07 05:28:45;;;;;;;10.90;1.63;;;;;;;;;;5007939;28;20125;-92
2022/12/07 05:31:11;;;;;;;13.85;1.38;;;;;;;;;;4999545;28;20497;-92
2022/12/07 05:33:37;;;;;;;7.35;1.65;;;;;;;;;;5016603;28;20060;-92
2022/12/07 05:36:05;;;;;;;7.53;1.35;;;;;;;;;;4992139;28;20040;-92
2022/12/07 05:38:38;;;;;;;13.93;5.05;;;;;;;;;;5010119;28;20046;-92
2022/12/07 05:41:06;;;;;;;18.02;6.03;;;;;;;;;;4990673;28;20030;-91
2022/12/07 05:43:35;;;;;;;11.43;3.42;;;;;;;;;;5009593;28;20321;-92
2022/12/07 05:46:01;;;;;;;10.68;2.08;;;;;;;;;;5006635;28;20029;-93
2022/12/07 05:48:27;;;;;;;6.25;1.90;;;;;;;;;;5014442;28;20026;-91
2022/12/07 05:50:53;;;;;;;9.13;1.83;;;;;;;;;;4997575;28;20211;-92
2022/12/07 05:53:19;;;;;;;6.50;1.17;;;;;;;;;;5006342;28;20061;-91
2022/12/07 05:55:48;;;;;;;9.77;2.20;;;;;;;;;;5003683;28;20052;-91
2022/12/07 06:01:04;;;;;;;7.93;1.20;;;;;;;;;;5006367;28;20088;-91
2022/12/07 06:03:30;;;;;;;15.43;1.20;;;;;;;;;;5006269;28;20125;-92
2022/12/07 06:05:56;;;;;;;9.30;1.30;;;;;;;;;;5000713;28;20084;-92
2022/12/07 06:08:25;;;;;;;11.63;1.23;;;;;;;;;;4989728;28;20471;-91
2022/12/07 06:12:33;;;;;;;12.63;1.40;;;;;;;;;;4989309;28;20958;-91
2022/12/07 06:13:37;;;;;;;9.60;1.10;;;;;;;;;;5000638;28;20493;-92
2022/12/07 06:16:28;;;;;;;17.00;1.52;;;;;;;;;;5005984;28;20049;-91
2022/12/07 06:19:23;;;;;;;7.35;1.80;;;;;;;;;;5034800;28;20025;-91
2022/12/07 06:21:49;;;;;;;13.80;1.48;;;;;;;;;;5010470;28;20064;-90
2022/12/07 06:24:16;;;;;;;6.28;1.40;;;;;;;;;;5001325;28;20045;-90
2022/12/07 06:26:42;;;;;;;11.32;1.48;;;;;;;;;;5005128;28;20049;-91
2022/12/07 06:29:09;;;;;;;4.32;0.88;;;;;;;;;;5029535;28;20425;-91
2022/12/07 06:31:46;;;;;;;9.73;1.75;;;;;;;;;;5011972;28;20491;-91
2022/12/07 06:34:32;;;;;;;3.58;0.65;;;;;;;;;;5024701;28;20029;-91
2022/12/07 06:37:01;;;;;;;11.25;1.23;;;;;;;;;;5015422;28;20045;-91
2022/12/07 06:40:24;;;;;;;;;;;;;;;;;;;;;
2022/12/07 06:43:22;;;;;;;12.02;1.60;;;;;;;;;;4972350;28;20124;-91
2022/12/07 06:45:48;;;;;;;14.00;1.63;;;;;;;;;;4978015;28;20063;-90
2022/12/07 06:48:26;;;;;;;6.75;1.38;;;;;;;;;;5018975;28;20037;-91
2022/12/07 06:51:09;;;;;;;13.93;1.75;;;;;;;;;;5023612;28;20033;-91
2022/12/07 06:53:37;;;;;;;6.75;0.90;;;;;;;;;;5022813;28;20664;-91
2022/12/07 06:56:07;;;;;;;8.75;0.98;;;;;;;;;;5011401;28;20033;-91
2022/12/07 06:59:10;;;;;;;;;;;;;;;;;;;;;
2022/12/07 07:01:56;;;;;;;;;;;;;;;;;;;;;
2022/12/07 07:04:43;;;;;;;11.77;1.65;;;;;;;;;;5035259;28;20061;-90
2022/12/07 07:07:10;;;;;;;6.32;1.25;;;;;;;;;;5006403;28;20406;-90
2022/12/07 07:09:36;;;;;;;3.78;0.93;;;;;;;;;;5007746;28;20572;-90
2022/12/07 07:12:08;;;;;;;4.80;1.40;;;;;;;;;;5006732;28;20576;-90
2022/12/07 07:14:46;;;;;;;19.88;2.25;;;;;;;;;;5001908;28;20038;-90
2022/12/07 07:17:12;;;;;;;4.30;0.90;;;;;;;;;;4999833;28;20042;-90
2022/12/07 07:19:39;;;;;;;14.63;1.40;;;;;;;;;;4997854;28;20077;-89
2022/12/07 07:22:05;;;;;;;12.65;0.93;;;;;;;;;;4993782;28;20033;-90
2022/12/07 07:24:31;;;;;;;6.85;1.65;;;;;;;;;;5000623;28;20218;-89
2022/12/07 07:26:57;;;;;;;44.97;1.88;;;;;;;;;;4995711;28;20030;-88
2022/12/07 07:29:23;;;;;;;29.63;1.73;;;;;;;;;;4982509;28;20129;-88
2022/12/07 07:31:49;;;;;;;7.07;1.05;;;;;;;;;;5003858;28;20474;-89
2022/12/07 07:34:15;;;;;;;13.02;1.33;;;;;;;;;;5004765;28;20068;-89
2022/12/07 07:36:41;;;;;;;4.90;1.13;;;;;;;;;;4990688;28;20038;-89
2022/12/07 07:39:07;;;;;;;14.65;1.48;;;;;;;;;;5004472;28;20042;-90
2022/12/07 07:41:33;;;;;;;0.85;0.22;;;;;;;;;;4989326;28;20041;-86
2022/12/07 07:43:59;;;;;;;1.10;0.15;;;;;;;;;;4983756;28;20088;-91
2022/12/07 07:46:25;;;;;;;3.40;0.20;;;;;;;;;;4993882;28;20038;-90
2022/12/07 07:48:51;;;;;;;5.40;0.32;;;;;;;;;;5002022;28;20027;-91
2022/12/07 07:51:17;;;;;;;7.97;1.48;;;;;;;;;;4999557;28;20034;-89
2022/12/07 07:53:43;;;;;;;2.85;0.40;;;;;;;;;;4986547;28;20034;-89
2022/12/07 07:56:09;;;;;;;4.95;1.13;;;;;;;;;;5002470;28;20066;-88
2022/12/07 07:58:36;;;;;;;6.15;0.93;;;;;;;;;;5003616;28;20430;-88
2022/12/07 08:01:06;;;;;;;1.83;0.45;;;;;;;;;;5000739;28;20027;-89
2022/12/07 08:03:31;;;;;;;5.38;1.15;;;;;;;;;;5001368;28;20029;-89
2022/12/07 08:05:58;;;;;;;2.55;0.70;;;;;;;;;;4981431;28;20110;-89
2022/12/07 08:08:24;;;;;;;3.28;1.08;;;;;;;;;;5002248;28;20029;-88
2022/12/07 08:10:50;;;;;;;6.72;2.60;;;;;;;;;;4998409;28;20120;-88
2022/12/07 08:13:16;;;;;;;12.95;0.85;;;;;;;;;;4984599;28;20041;-89
2022/12/07 08:15:49;;;;;;;6.15;1.08;;;;;;;;;;4973325;28;20050;-89
2022/12/07 08:18:15;;;;;;;15.25;1.00;;;;;;;;;;4945627;28;20117;-89
2022/12/07 08:20:42;;;;;;;4.43;0.70;;;;;;;;;;4963121;28;20034;-89
2022/12/07 08:23:08;;;;;;;6.82;0.60;;;;;;;;;;4964467;28;20491;-89
2022/12/07 08:25:35;;;;;;;4.32;0.52;;;;;;;;;;4967519;28;20228;-87
2022/12/07 08:28:01;;;;;;;13.50;0.80;;;;;;;;;;4978727;28;20116;-89
2022/12/07 08:30:28;;;;;;;6.28;0.80;;;;;;;;;;4962163;28;20026;-88
2022/12/07 08:32:54;;;;;;;2.55;0.93;;;;;;;;;;4959933;28;20070;-88
2022/12/07 08:35:21;;;;;;;8.50;1.58;;;;;;;;;;4949468;28;20688;-88
2022/12/07 08:37:47;;;;;;;2.22;0.57;;;;;;;;;;4964681;28;20494;-88
2022/12/07 08:40:15;;;;;;;8.63;2.13;;;;;;;;;;4966789;28;20038;-88
2022/12/07 08:42:44;;;;;;;2.35;0.50;;;;;;;;;;4968897;28;20053;-89
2022/12/07 08:45:14;;;;;;;4.70;0.68;;;;;;;;;;4963640;28;20061;-88
2022/12/07 08:47:42;;;;;;;2.60;0.25;;;;;;;;;;4964317;28;20170;-89
2022/12/07 08:50:10;;;;;;;7.57;0.82;;;;;;;;;;4967505;28;20122;-88
2022/12/07 08:52:37;;;;;;;10.95;1.10;;;;;;;;;;4962141;28;20038;-88
2022/12/07 08:55:05;;;;;;;6.25;1.25;;;;;;;;;;4968458;28;20081;-89
2022/12/07 08:57:32;;;;;;;2.88;0.63;;;;;;;;;;4984871;28;20045;-88
2022/12/07 08:59:58;;;;;;;9.20;1.58;;;;;;;;;;4964380;28;20617;-88
2022/12/07 09:02:24;;;;;;;0.75;0.52;;;;;;;;;;4967179;28;20038;-89
2022/12/07 09:04:50;;;;;;;9.65;1.40;;;;;;;;;;4950879;28;20699;-88
2022/12/07 09:07:16;;;;;;;9.85;1.17;;;;;;;;;;4962069;28;20575;-88
2022/12/07 09:09:42;;;;;;;6.03;1.05;;;;;;;;;;4959877;28;20705;-89
2022/12/07 09:12:10;;;;;;;14.52;1.00;;;;;;;;;;4962003;28;20603;-88
2022/12/07 09:14:36;;;;;;;16.75;1.90;;;;;;;;;;4975270;28;20116;-89
2022/12/07 09:17:09;;;;;;;12.88;2.47;;;;;;;;;;5003075;28;20045;-88
2022/12/07 09:19:35;;;;;;;11.15;1.90;;;;;;;;;;5016086;28;20044;-87
2022/12/07 09:22:01;;;;;;;8.90;1.73;;;;;;;;;;4986813;28;20037;-87
2022/12/07 09:24:27;;;;;;;22.80;1.73;;;;;;;;;;5001268;28;20073;-87
2022/12/07 09:26:54;;;;;;;30.48;2.78;;;;;;;;;;5004389;28;20032;-90
2022/12/07 09:29:20;;;;;;;11.82;1.48;;;;;;;;;;5004688;28;20048;-88
2022/12/07 09:31:46;;;;;;;12.40;1.90;;;;;;;;;;4989993;28;20519;-88
2022/12/07 09:34:12;;;;;;;13.75;1.50;;;;;;;;;;4989016;28;20034;-88
2022/12/07 09:36:38;;;;;;;6.00;1.20;;;;;;;;;;5021297;28;20193;-88
2022/12/07 09:39:05;;;;;;;7.05;1.80;;;;;;;;;;4988145;28;20175;-90
2022/12/07 09:41:31;;;;;;;14.52;1.38;;;;;;;;;;4987581;28;20037;-88
2022/12/07 09:44:05;;;;;;;10.35;1.48;;;;;;;;;;5018860;28;20554;-88
2022/12/07 09:46:36;;;;;;;3.88;0.70;;;;;;;;;;4997621;28;20409;-88
2022/12/07 09:49:02;;;;;;;3.65;0.73;;;;;;;;;;5007335;28;20034;-88
2022/12/07 09:51:28;;;;;;;8.57;0.90;;;;;;;;;;5004254;28;20097;-87
2022/12/07 09:53:55;;;;;;;3.83;0.73;;;;;;;;;;5002251;28;20105;-88
2022/12/07 09:56:22;;;;;;;7.68;1.40;;;;;;;;;;5003380;28;20374;-87
2022/12/07 09:58:48;;;;;;;9.95;0.85;;;;;;;;;;5005695;28;20034;-88
2022/12/07 10:01:19;;;;;;;2.03;0.47;;;;;;;;;;5006507;28;20046;-89
2022/12/07 10:03:52;;;;;;;2.90;0.68;;;;;;;;;;5003495;28;20037;-88
2022/12/07 10:06:37;;;;;;;9.43;1.38;;;;;;;;;;5001983;28;20145;-88
2022/12/07 10:09:09;;;;;;;7.40;1.15;;;;;;;;;;5015221;28;20060;-88
2022/12/07 10:11:56;;;;;;;8.43;1.10;;;;;;;;;;5009802;28;20019;-88
2022/12/07 10:14:24;;;;;;;6.72;1.30;;;;;;;;;;5029093;28;20038;-88
2022/12/07 10:16:53;;;;;;;12.45;1.17;;;;;;;;;;5014932;28;20907;-88
2022/12/07 10:19:23;;;;;;;9.05;1.48;;;;;;;;;;5026915;28;20048;-88
2022/12/07 10:22:14;;;;;;;9.18;1.35;;;;;;;;;;5015999;28;20033;-89
2022/12/07 10:24:47;;;;;;;12.38;1.55;;;;;;;;;;5018631;28;20432;-89
2022/12/07 10:27:22;;;;;;;4.28;0.88;;;;;;;;;;5014988;28;20076;-88
2022/12/07 10:29:50;;;;;;;10.05;1.48;;;;;;;;;;5024381;28;20112;-88
2022/12/07 10:32:16;;;;;;;8.70;1.40;;;;;;;;;;5024924;28;20029;-88
2022/12/07 10:34:42;;;;;;;11.48;1.25;;;;;;;;;;5011262;28;21535;-88
2022/12/07 10:37:34;;;;;;;12.07;1.42;;;;;;;;;;5026217;28;20037;-88
2022/12/07 10:40:02;;;;;;;7.25;1.60;;;;;;;;;;5008423;28;20107;-88
2022/12/07 10:42:29;;;;;;;7.53;1.00;;;;;;;;;;4991446;28;20029;-88
2022/12/07 10:45:15;;;;;;;8.02;1.70;;;;;;;;;;5027913;28;20116;-88
2022/12/07 10:47:57;;;;;;;7.18;1.33;;;;;;;;;;5014953;28;20535;-88
2022/12/07 10:50:32;;;;;;;7.00;1.35;;;;;;;;;;5006430;28;20723;-88
2022/12/07 10:53:01;;;;;;;19.90;2.05;;;;;;;;;;5022292;28;20543;-88
2022/12/07 10:55:33;;;;;;;8.20;1.35;;;;;;;;;;5004938;28;20039;-88
2022/12/07 10:58:15;;;;;;;5.40;1.23;;;;;;;;;;5023073;28;20489;-89
2022/12/07 11:01:05;;;;;;;11.57;2.05;;;;;;;;;;5008882;28;20033;-89
2022/12/07 11:03:37;;;;;;;19.35;1.00;;;;;;;;;;5025861;28;20036;-89
2022/12/07 11:06:22;;;;;;;5.93;0.85;;;;;;;;;;5015769;28;20037;-88
2022/12/07 11:08:59;;;;;;;9.75;1.20;;;;;;;;;;5015658;28;20041;-88
2022/12/07 11:11:43;;;;;;;2.67;1.02;;;;;;;;;;5027672;28;20041;-89
2022/12/07 11:14:15;;;;;;;7.10;1.10;;;;;;;;;;5028134;28;20037;-89
2022/12/07 11:17:03;;;;;;;15.40;1.30;;;;;;;;;;5031086;28;20044;-88
2022/12/07 11:19:54;;;;;;;13.57;1.20;;;;;;;;;;5030454;28;20030;-88
2022/12/07 11:22:26;;;;;;;11.60;1.42;;;;;;;;;;5008322;28;20109;-88
2022/12/07 11:25:12;;;;;;;8.60;1.13;;;;;;;;;;5013771;28;20534;-88
2022/12/07 11:27:41;;;;;;;6.10;0.90;;;;;;;;;;5010750;28;20033;-89
2022/12/07 11:30:31;;;;;;;5.80;0.88;;;;;;;;;;5025373;28;20062;-88
2022/12/07 11:33:00;;;;;;;8.82;1.55;;;;;;;;;;5001896;28;20493;-88
2022/12/07 11:35:45;;;;;;;11.00;2.28;;;;;;;;;;5014187;28;20029;-89
2022/12/07 11:38:14;;;;;;;8.18;1.02;;;;;;;;;;5010233;28;20068;-88
2022/12/07 11:40:41;;;;;;;10.55;1.45;;;;;;;;;;5010464;28;20389;-88
2022/12/07 11:43:27;;;;;;;12.75;1.42;;;;;;;;;;5021534;28;20072;-88
2022/12/07 11:46:14;;;;;;;13.68;1.38;;;;;;;;;;5010027;28;20064;-89
2022/12/07 11:49:03;;;;;;;6.32;1.27;;;;;;;;;;5005095;28;20623;-90
2022/12/07 11:51:31;;;;;;;5.93;1.15;;;;;;;;;;5012734;28;20481;-90
2022/12/07 11:54:06;;;;;;;7.78;1.75;;;;;;;;;;5011291;28;20344;-90
2022/12/07 11:56:52;;;;;;;7.40;1.60;;;;;;;;;;5012611;28;20029;-90
2022/12/07 11:59:45;;;;;;;13.27;1.67;;;;;;;;;;5027028;28;20053;-91
2022/12/07 12:02:25;;;;;;;10.65;2.13;;;;;;;;;;5007335;28;20509;-90
2022/12/07 12:05:03;;;;;;;15.90;1.75;;;;;;;;;;5010489;28;20028;-89
2022/12/07 12:07:32;;;;;;;8.38;1.05;;;;;;;;;;5010614;28;20029;-90
2022/12/07 12:09:58;;;;;;;4.85;1.20;;;;;;;;;;4995453;28;20030;-89
2022/12/07 12:12:27;;;;;;;5.25;1.17;;;;;;;;;;5010548;28;20063;-89
2022/12/07 12:15:12;;;;;;;7.00;1.08;;;;;;;;;;5009410;28;20069;-90
2022/12/07 12:18:01;;;;;;;4.40;1.08;;;;;;;;;;5008278;28;20049;-90
2022/12/07 12:20:39;;;;;;;8.90;1.88;;;;;;;;;;5020233;28;20234;-90
2022/12/07 12:23:08;;;;;;;6.53;1.25;;;;;;;;;;5027007;28;20062;-89
2022/12/07 12:25:39;;;;;;;9.95;1.13;;;;;;;;;;5026379;28;20559;-89
2022/12/07 12:28:25;;;;;;;8.50;1.60;;;;;;;;;;5008045;28;21013;-89
2022/12/07 12:31:06;;;;;;;6.53;1.20;;;;;;;;;;5009897;28;20116;-89
2022/12/07 12:33:39;;;;;;;8.15;1.42;;;;;;;;;;5010942;28;20026;-89
2022/12/07 12:36:24;;;;;;;4.20;1.83;;;;;;;;;;5009289;28;20022;-89
2022/12/07 12:39:14;;;;;;;4.15;1.10;;;;;;;;;;5005193;28;20080;-89
2022/12/07 12:44:17;;;;;;;11.57;2.15;;;;;;;;;;5022148;28;20084;-89
2022/12/07 12:46:54;;;;;;;9.13;1.67;;;;;;;;;;5008209;28;20052;-89
2022/12/07 12:49:20;;;;;;;8.68;1.40;;;;;;;;;;5007950;28;20139;-89
2022/12/07 12:52:01;;;;;;;7.93;1.85;;;;;;;;;;5011137;28;20564;-89
2022/12/07 12:54:36;;;;;;;5.13;1.10;;;;;;;;;;4993478;28;20034;-89
2022/12/07 12:57:14;;;;;;;5.30;0.95;;;;;;;;;;5020143;28;20504;-90
2022/12/07 13:00:07;;;;;;;5.35;1.08;;;;;;;;;;5007226;28;20037;-90
2022/12/07 13:02:37;;;;;;;8.45;1.33;;;;;;;;;;5009160;28;20038;-90
2022/12/07 13:05:12;;;;;;;26.70;0.93;;;;;;;;;;5008754;28;20057;-91
2022/12/07 13:07:50;;;;;;;10.23;1.13;;;;;;;;;;5008137;28;20470;-90
2022/12/07 13:10:19;;;;;;;6.35;1.00;;;;;;;;;;5026100;28;20307;-90
2022/12/07 13:12:56;;;;;;;8.98;1.75;;;;;;;;;;5004025;28;20060;-90
2022/12/07 13:15:32;;;;;;;14.30;1.48;;;;;;;;;;5001801;28;20043;-91
2022/12/07 13:18:00;;;;;;;21.58;1.77;;;;;;;;;;5000548;28;20044;-90
2022/12/07 13:20:53;;;;;;;8.45;1.38;;;;;;;;;;4975520;28;20231;-90
2022/12/07 13:23:28;;;;;;;10.23;1.77;;;;;;;;;;4993482;28;20129;-90
2022/12/07 13:26:26;;;;;;;3.65;1.15;;;;;;;;;;4986471;28;20489;-90
2022/12/07 13:28:52;;;;;;;1.05;0.28;;;;;;;;;;4994111;28;20486;-91
2022/12/07 13:31:31;;;;;;;3.10;1.25;;;;;;;;;;4988056;28;20021;-90
2022/12/07 13:34:02;;;;;;;5.20;1.30;;;;;;;;;;4988961;28;20690;-90
2022/12/07 13:36:37;;;;;;;7.03;1.50;;;;;;;;;;5003004;28;20108;-90
2022/12/07 13:39:22;;;;;;;2.55;0.93;;;;;;;;;;4987172;28;20042;-91
2022/12/07 13:42:02;;;;;;;5.43;1.45;;;;;;;;;;4982371;28;20504;-90
2022/12/07 13:44:28;;;;;;;2.75;0.90;;;;;;;;;;4991497;28;20459;-91
2022/12/07 13:47:09;;;;;;;10.80;1.05;;;;;;;;;;4987144;28;20069;-90
2022/12/07 13:49:39;;;;;;;6.10;1.42;;;;;;;;;;4984846;28;20025;-91
2022/12/07 13:52:32;;;;;;;3.85;0.88;;;;;;;;;;5006245;28;20034;-90
2022/12/07 13:55:02;;;;;;;3.10;0.80;;;;;;;;;;4992450;28;20060;-90
2022/12/07 13:57:34;;;;;;;6.18;0.77;;;;;;;;;;4995587;28;20026;-91
2022/12/07 14:00:01;;;;;;;2.55;0.73;;;;;;;;;;4982110;28;20169;-91
2022/12/07 14:02:33;;;;;;;3.95;1.10;;;;;;;;;;4986131;28;20246;-90
2022/12/07 14:05:11;;;;;;;2.85;0.68;;;;;;;;;;4985566;28;20107;-90
2022/12/07 14:08:04;;;;;;;5.28;1.10;;;;;;;;;;4984295;28;20029;-91
2022/12/07 14:10:58;;;;;;;3.55;0.60;;;;;;;;;;4980630;28;20026;-90
2022/12/07 14:13:47;;;;;;;5.95;0.73;;;;;;;;;;4988153;28;20410;-91
2022/12/07 14:16:47;;;;;;;5.82;0.93;;;;;;;;;;4971352;28;20552;-91
2022/12/07 14:19:34;;;;;;;10.02;1.10;;;;;;;;;;4968573;28;20038;-91
2022/12/07 14:22:07;;;;;;;7.35;1.60;;;;;;;;;;4966981;28;20077;-91
2022/12/07 14:24:44;;;;;;;6.13;1.30;;;;;;;;;;4959892;28;20077;-90
2022/12/07 14:27:21;;;;;;;4.18;0.88;;;;;;;;;;4964944;28;20097;-91
2022/12/07 14:29:48;;;;;;;4.20;1.58;;;;;;;;;;4969229;28;20332;-91
2022/12/07 14:32:27;;;;;;;3.90;1.20;;;;;;;;;;4966221;28;20042;-91
2022/12/07 14:34:59;;;;;;;11.77;1.70;;;;;;;;;;4966894;28;20066;-91
2022/12/07 14:37:27;;;;;;;19.95;1.67;;;;;;;;;;4946179;28;20038;-91
2022/12/07 14:39:53;;;;;;;8.48;0.98;;;;;;;;;;4963268;28;20045;-91
2022/12/07 14:42:27;;;;;;;5.95;1.17;;;;;;;;;;4966257;28;20042;-90
2022/12/07 14:44:53;;;;;;;6.13;1.48;;;;;;;;;;4963559;28;20038;-90
2022/12/07 14:47:22;;;;;;;6.55;0.90;;;;;;;;;;4969659;28;20103;-90
2022/12/07 14:49:48;;;;;;;3.33;0.55;;;;;;;;;;4969190;28;20553;-90
2022/12/07 14:52:33;;;;;;;3.97;0.90;;;;;;;;;;4960543;28;20030;-90
2022/12/07 14:55:20;;;;;;;1.02;0.10;;;;;;;;;;4968854;28;20303;-91
2022/12/07 14:57:46;;;;;;;0.50;0.28;;;;;;;;;;4960647;28;20125;-90
2022/12/07 15:00:16;;;;;;;1.00;0.70;;;;;;;;;;4970146;28;20048;-90
2022/12/07 15:02:50;;;;;;;0.00;0.00;;;;;;;;;;4967969;28;20441;-90
2022/12/07 15:05:16;;;;;;;2.42;0.63;;;;;;;;;;4961210;28;20082;-90
2022/12/07 15:07:43;;;;;;;4.85;0.95;;;;;;;;;;4966612;28;20027;-90
2022/12/07 15:10:22;;;;;;;10.68;0.90;;;;;;;;;;4975854;28;20033;-90
2022/12/07 15:12:48;;;;;;;6.70;0.65;;;;;;;;;;4982471;28;20386;-90
2022/12/07 15:15:20;;;;;;;2.47;1.08;;;;;;;;;;4972740;28;20038;-90
2022/12/07 15:17:46;;;;;;;5.07;1.13;;;;;;;;;;4983188;28;20466;-90
2022/12/07 15:20:17;;;;;;;8.38;1.90;;;;;;;;;;4997593;28;20069;-90